Time;durP1;ratioP1;P1;durP2;ratioP2;P2;SDS_P1;SDS_P2;PMS_P1;PMS_P2;Temp;Humidity;BMP_temperature;BMP_pressure;BME280_temperature;BME280_humidity;BME280_pressure;Samples;Min_cycle;Max_cycle;Signal;HPM_P1;HPM_P2
2023/07/31 00:02:16;;;;;;;5.30;2.80;;;16.40;99.90;;;;;;5076303;22;20440;-70
2023/07/31 00:04:43;;;;;;;4.78;3.28;;;16.40;99.90;;;;;;5063261;28;20420;-69
2023/07/31 00:07:09;;;;;;;6.93;3.40;;;16.40;99.90;;;;;;5070419;28;20774;-71
2023/07/31 00:09:36;;;;;;;5.22;3.20;;;16.40;99.90;;;;;;5069250;28;20419;-70
2023/07/31 00:12:03;;;;;;;5.50;3.50;;;16.40;99.90;;;;;;5069867;28;20435;-69
2023/07/31 00:14:30;;;;;;;4.25;3.30;;;16.50;99.90;;;;;;5065998;28;21106;-69
2023/07/31 00:16:57;;;;;;;4.07;3.30;;;16.50;99.90;;;;;;5061038;28;20428;-70
2023/07/31 00:19:25;;;;;;;6.35;4.15;;;16.50;99.90;;;;;;5070136;28;20816;-69
2023/07/31 00:21:51;;;;;;;6.93;4.47;;;16.50;99.90;;;;;;5062740;28;20420;-70
2023/07/31 00:24:18;;;;;;;6.90;3.40;;;16.50;99.90;;;;;;5061223;28;20414;-70
2023/07/31 00:26:45;;;;;;;6.22;3.50;;;16.50;99.90;;;;;;5069615;28;20412;-70
2023/07/31 00:29:11;;;;;;;5.72;3.22;;;16.50;99.90;;;;;;5071088;28;20501;-69
2023/07/31 00:31:38;;;;;;;7.22;3.75;;;16.60;99.90;;;;;;5071250;28;20423;-71
2023/07/31 00:34:05;;;;;;;5.22;3.13;;;16.60;99.90;;;;;;5062582;28;20673;-69
2023/07/31 00:36:33;;;;;;;4.88;3.63;;;16.50;99.90;;;;;;5062052;28;20487;-69
2023/07/31 00:39:00;;;;;;;5.00;3.20;;;16.60;99.90;;;;;;5063574;28;20423;-69
2023/07/31 00:41:26;;;;;;;4.68;2.80;;;16.60;99.90;;;;;;5059564;28;20996;-68
2023/07/31 00:43:53;;;;;;;4.75;2.90;;;16.60;99.90;;;;;;5064813;28;20430;-71
2023/07/31 00:46:21;;;;;;;5.90;3.38;;;16.70;99.90;;;;;;5070657;28;20412;-69
2023/07/31 00:48:48;;;;;;;5.20;2.70;;;16.70;99.90;;;;;;5060188;28;20412;-69
2023/07/31 00:51:15;;;;;;;5.70;3.33;;;16.80;99.90;;;;;;5061656;28;20926;-69
2023/07/31 00:53:44;;;;;;;4.30;2.70;;;16.80;99.90;;;;;;5067611;28;20422;-70
2023/07/31 00:56:11;;;;;;;6.13;2.90;;;16.80;99.90;;;;;;5057982;28;20424;-69
2023/07/31 00:58:38;;;;;;;4.55;3.00;;;16.90;99.90;;;;;;5066117;28;20424;-70
2023/07/31 01:01:05;;;;;;;5.07;2.97;;;16.90;99.90;;;;;;5054453;28;20797;-70
2023/07/31 01:03:32;;;;;;;4.50;2.90;;;16.90;99.90;;;;;;5062933;28;20418;-69
2023/07/31 01:06:14;;;;;;;5.30;3.05;;;17.00;99.90;;;;;;5066634;28;20769;-68
2023/07/31 01:08:49;;;;;;;5.97;2.80;;;16.90;99.90;;;;;;5061992;28;20412;-70
2023/07/31 01:11:22;;;;;;;3.45;2.60;;;16.90;99.90;;;;;;5061279;28;20434;-69
2023/07/31 01:13:49;;;;;;;3.83;2.78;;;16.90;99.90;;;;;;5077754;28;20411;-70
2023/07/31 01:16:16;;;;;;;4.32;2.83;;;17.00;99.90;;;;;;5091328;28;20391;-71
2023/07/31 01:18:43;;;;;;;3.17;2.30;;;17.00;99.90;;;;;;5093827;28;20427;-73
2023/07/31 01:21:28;;;;;;;3.67;2.40;;;17.00;99.90;;;;;;5085574;28;20412;-71
2023/07/31 01:24:18;;;;;;;4.00;2.95;;;17.00;99.90;;;;;;5093021;28;20399;-70
2023/07/31 01:26:50;;;;;;;6.07;3.30;;;17.00;99.90;;;;;;5057041;28;20915;-69
2023/07/31 01:29:25;;;;;;;3.90;2.70;;;17.00;99.90;;;;;;5067757;28;20438;-71
2023/07/31 01:31:56;;;;;;;4.20;2.70;;;17.00;99.90;;;;;;5063072;28;20538;-70
2023/07/31 01:34:23;;;;;;;3.40;2.50;;;17.00;99.90;;;;;;5057654;28;20449;-68
2023/07/31 01:36:50;;;;;;;3.92;2.45;;;17.10;99.90;;;;;;5062472;28;20415;-70
2023/07/31 01:39:17;;;;;;;4.30;2.60;;;17.10;99.90;;;;;;5060749;28;20889;-70
2023/07/31 01:41:43;;;;;;;4.65;2.53;;;17.10;99.90;;;;;;5064011;28;20435;-70
2023/07/31 01:44:11;;;;;;;4.28;2.95;;;17.10;99.90;;;;;;5067023;28;20573;-70
2023/07/31 01:46:38;;;;;;;3.55;2.63;;;17.10;99.90;;;;;;5060669;28;20420;-70
2023/07/31 01:49:06;;;;;;;4.55;2.55;;;17.10;99.90;;;;;;5054946;28;20930;-70
2023/07/31 01:51:33;;;;;;;3.60;2.53;;;17.10;99.90;;;;;;5057089;28;20423;-68
2023/07/31 01:54:00;;;;;;;4.53;2.60;;;17.10;99.90;;;;;;5065308;28;20421;-70
2023/07/31 01:56:27;;;;;;;4.13;2.58;;;17.10;99.90;;;;;;5063262;28;20732;-69
2023/07/31 01:58:54;;;;;;;4.40;2.30;;;17.20;99.90;;;;;;5068210;28;20411;-69
2023/07/31 02:01:22;;;;;;;4.55;2.20;;;17.20;99.90;;;;;;5068158;28;20416;-70
2023/07/31 02:03:49;;;;;;;3.47;2.42;;;17.20;99.90;;;;;;5067497;28;20411;-69
2023/07/31 02:06:16;;;;;;;5.10;2.78;;;17.20;99.90;;;;;;5059323;28;20519;-69
2023/07/31 02:08:42;;;;;;;4.57;2.80;;;17.30;99.90;;;;;;5059346;28;20433;-69
2023/07/31 02:11:09;;;;;;;4.33;3.10;;;17.20;99.90;;;;;;5068344;28;20446;-71
2023/07/31 02:13:36;;;;;;;6.55;3.10;;;17.20;99.90;;;;;;5067475;28;20434;-70
2023/07/31 02:16:02;;;;;;;6.00;2.60;;;17.30;99.90;;;;;;5068682;28;20428;-71
2023/07/31 02:18:30;;;;;;;4.97;2.70;;;17.30;99.90;;;;;;5061680;28;20421;-69
2023/07/31 02:20:57;;;;;;;4.60;2.70;;;17.30;99.90;;;;;;5067593;28;20446;-69
2023/07/31 02:23:24;;;;;;;4.00;2.70;;;17.30;99.90;;;;;;5063354;28;20409;-69
2023/07/31 02:25:51;;;;;;;5.05;2.83;;;17.30;99.90;;;;;;5059948;28;20418;-69
2023/07/31 02:28:17;;;;;;;4.47;2.80;;;17.30;99.90;;;;;;5060616;28;20428;-71
2023/07/31 02:30:46;;;;;;;5.10;2.70;;;17.30;99.90;;;;;;5067284;28;20416;-69
2023/07/31 02:33:13;;;;;;;4.90;2.60;;;17.30;99.90;;;;;;5064518;28;20829;-69
2023/07/31 02:35:41;;;;;;;4.20;2.80;;;17.30;99.90;;;;;;5072047;28;20430;-69
2023/07/31 02:38:07;;;;;;;5.78;3.08;;;17.30;99.90;;;;;;5071491;28;20431;-70
2023/07/31 02:40:34;;;;;;;4.32;2.47;;;17.40;99.90;;;;;;5071923;28;20422;-69
2023/07/31 02:43:01;;;;;;;5.50;2.70;;;17.40;99.90;;;;;;5062639;28;20518;-69
2023/07/31 02:45:27;;;;;;;5.57;2.92;;;17.40;99.90;;;;;;5064096;28;20415;-68
2023/07/31 02:47:54;;;;;;;3.70;2.50;;;17.40;99.90;;;;;;5062071;28;20422;-69
2023/07/31 02:50:21;;;;;;;3.38;2.60;;;17.40;99.90;;;;;;5061186;28;20419;-71
2023/07/31 02:52:49;;;;;;;5.93;2.80;;;17.40;99.90;;;;;;5064261;28;20462;-70
2023/07/31 02:55:16;;;;;;;6.90;3.03;;;17.50;99.90;;;;;;5061815;28;20431;-69
2023/07/31 02:57:42;;;;;;;4.65;2.80;;;17.50;99.90;;;;;;5065830;28;20439;-69
2023/07/31 03:00:09;;;;;;;5.72;3.20;;;17.40;99.90;;;;;;5071232;28;20419;-69
2023/07/31 03:02:36;;;;;;;7.90;2.90;;;17.50;99.90;;;;;;5070305;28;20418;-69
2023/07/31 03:05:03;;;;;;;4.43;2.90;;;17.40;99.90;;;;;;5063840;28;21151;-71
2023/07/31 03:07:30;;;;;;;5.20;2.60;;;17.50;99.90;;;;;;5051733;28;21189;-68
2023/07/31 03:09:58;;;;;;;5.60;3.00;;;17.50;99.90;;;;;;5066497;28;20463;-70
2023/07/31 03:12:25;;;;;;;4.43;3.00;;;17.50;99.90;;;;;;5067824;28;20424;-71
2023/07/31 03:14:51;;;;;;;5.15;3.20;;;17.50;99.90;;;;;;5067069;28;20430;-70
2023/07/31 03:17:18;;;;;;;5.70;3.20;;;17.50;99.90;;;;;;5068439;28;20423;-70
2023/07/31 03:19:45;;;;;;;5.00;2.70;;;17.50;99.90;;;;;;5068654;28;20771;-69
2023/07/31 03:22:12;;;;;;;4.50;2.80;;;17.50;99.90;;;;;;5068196;28;20785;-71
2023/07/31 03:24:38;;;;;;;5.38;3.10;;;17.50;99.90;;;;;;5067333;28;20427;-73
2023/07/31 03:27:07;;;;;;;4.85;3.00;;;17.50;99.90;;;;;;5065230;28;20403;-71
2023/07/31 03:29:34;;;;;;;4.80;3.10;;;17.50;99.90;;;;;;5064278;28;20519;-71
2023/07/31 03:32:00;;;;;;;5.93;3.45;;;17.50;99.90;;;;;;5067108;28;20823;-70
2023/07/31 03:34:27;;;;;;;6.30;2.72;;;17.50;99.90;;;;;;5071336;28;20422;-70
2023/07/31 03:36:54;;;;;;;5.25;2.92;;;17.60;99.90;;;;;;5067483;28;20435;-70
2023/07/31 03:39:21;;;;;;;4.82;2.78;;;17.60;99.80;;;;;;5065670;28;20443;-69
2023/07/31 03:41:47;;;;;;;5.15;3.65;;;17.70;99.80;;;;;;5066325;28;20806;-70
2023/07/31 03:44:15;;;;;;;6.55;2.97;;;17.70;99.90;;;;;;5064814;28;20432;-70
2023/07/31 03:46:42;;;;;;;4.97;3.30;;;17.60;99.90;;;;;;5062360;28;20425;-69
2023/07/31 03:49:09;;;;;;;5.10;3.60;;;17.50;99.90;;;;;;5070211;28;20424;-68
2023/07/31 03:51:36;;;;;;;5.88;3.53;;;17.40;99.90;;;;;;5064132;28;20425;-70
2023/07/31 03:54:03;;;;;;;4.75;3.20;;;17.30;99.90;;;;;;5061275;28;20439;-69
2023/07/31 03:56:29;;;;;;;6.05;3.40;;;17.30;99.90;;;;;;5062432;28;20431;-69
2023/07/31 03:58:56;;;;;;;6.43;3.60;;;17.30;99.90;;;;;;5064191;28;20428;-70
2023/07/31 04:01:24;;;;;;;4.30;3.30;;;17.30;99.90;;;;;;5064414;28;20783;-70
2023/07/31 04:03:51;;;;;;;6.68;4.20;;;17.40;99.90;;;;;;5070365;28;20898;-70
2023/07/31 04:06:18;;;;;;;5.97;3.70;;;17.30;99.90;;;;;;5068576;28;20434;-69
2023/07/31 04:08:45;;;;;;;8.63;4.35;;;17.30;99.90;;;;;;5068552;28;20615;-69
2023/07/31 04:11:12;;;;;;;5.20;3.50;;;17.30;99.90;;;;;;5067074;28;20987;-69
2023/07/31 04:13:39;;;;;;;7.07;3.65;;;17.20;99.90;;;;;;5068695;28;20432;-69
2023/07/31 04:16:06;;;;;;;6.30;3.67;;;17.20;99.90;;;;;;5063520;28;20429;-68
2023/07/31 04:18:34;;;;;;;5.97;3.85;;;17.20;99.90;;;;;;5058968;28;20880;-69
2023/07/31 04:21:02;;;;;;;5.88;3.50;;;17.20;99.90;;;;;;5068841;28;20438;-70
2023/07/31 04:23:29;;;;;;;5.40;3.50;;;17.20;99.90;;;;;;5063784;28;20499;-69
2023/07/31 04:25:55;;;;;;;5.40;3.35;;;17.20;99.90;;;;;;5066056;28;20794;-69
2023/07/31 04:28:22;;;;;;;5.38;3.15;;;17.30;99.90;;;;;;5069192;28;20844;-69
2023/07/31 04:30:49;;;;;;;4.68;3.80;;;17.30;99.90;;;;;;5073359;28;20434;-70
2023/07/31 04:33:16;;;;;;;4.55;3.40;;;17.30;99.90;;;;;;5080213;28;20403;-68
2023/07/31 04:35:52;;;;;;;5.82;3.80;;;17.30;99.90;;;;;;5069358;28;20434;-70
2023/07/31 04:38:18;;;;;;;5.22;3.65;;;17.30;99.90;;;;;;5059182;28;20417;-70
2023/07/31 04:40:48;;;;;;;5.45;3.70;;;17.40;99.90;;;;;;5066412;28;21399;-70
2023/07/31 04:43:14;;;;;;;5.40;4.15;;;17.40;99.90;;;;;;5064439;28;20440;-71
2023/07/31 04:45:46;;;;;;;4.57;3.60;;;17.40;99.90;;;;;;5067544;28;20523;-70
2023/07/31 04:48:13;;;;;;;4.93;3.35;;;17.50;99.90;;;;;;5062341;28;20909;-70
2023/07/31 04:50:40;;;;;;;5.90;3.90;;;17.50;99.90;;;;;;5068442;28;20431;-71
2023/07/31 04:53:08;;;;;;;4.77;3.60;;;17.60;99.90;;;;;;5065861;28;20419;-69
2023/07/31 04:55:34;;;;;;;4.90;3.55;;;17.60;99.90;;;;;;5054773;28;20435;-69
2023/07/31 04:58:01;;;;;;;6.37;3.50;;;17.60;99.90;;;;;;5061913;28;20422;-72
2023/07/31 05:00:28;;;;;;;4.20;3.80;;;17.70;99.90;;;;;;5090480;28;20581;-71
2023/07/31 05:02:55;;;;;;;4.95;3.30;;;17.70;99.90;;;;;;5091495;28;20485;-70
2023/07/31 05:05:21;;;;;;;5.20;3.08;;;17.70;99.90;;;;;;5092733;28;20427;-72
2023/07/31 05:07:48;;;;;;;3.78;3.10;;;17.80;99.50;;;;;;5092363;28;20411;-71
2023/07/31 05:10:16;;;;;;;5.53;3.40;;;17.90;99.20;;;;;;5078012;28;20424;-70
2023/07/31 05:12:43;;;;;;;4.57;3.38;;;17.90;99.20;;;;;;5067612;28;20845;-71
2023/07/31 05:15:10;;;;;;;4.63;3.60;;;17.90;99.00;;;;;;5058360;28;20420;-70
2023/07/31 05:17:37;;;;;;;5.13;3.60;;;18.00;98.50;;;;;;5064558;28;20434;-70
2023/07/31 05:20:04;;;;;;;5.32;3.53;;;18.00;98.30;;;;;;5059185;28;20431;-70
2023/07/31 05:22:31;;;;;;;4.93;3.47;;;18.10;98.30;;;;;;5068628;28;20418;-70
2023/07/31 05:24:58;;;;;;;6.22;4.28;;;18.00;98.50;;;;;;5065942;28;20431;-71
2023/07/31 05:27:26;;;;;;;6.20;3.65;;;18.10;98.20;;;;;;5062797;28;20424;-71
2023/07/31 05:29:52;;;;;;;4.75;3.40;;;18.10;98.00;;;;;;5059466;28;20427;-69
2023/07/31 05:32:19;;;;;;;4.80;3.60;;;18.20;98.00;;;;;;5069268;28;20411;-69
2023/07/31 05:34:46;;;;;;;5.72;3.50;;;18.20;97.50;;;;;;5067686;28;20573;-69
2023/07/31 05:37:13;;;;;;;4.07;3.40;;;18.20;97.30;;;;;;5065842;28;20746;-70
2023/07/31 05:39:39;;;;;;;4.50;3.50;;;18.30;97.40;;;;;;5058450;28;20783;-70
2023/07/31 05:42:06;;;;;;;5.07;3.10;;;18.30;97.30;;;;;;5064586;28;20442;-70
2023/07/31 05:44:34;;;;;;;5.78;3.40;;;18.30;97.40;;;;;;5067338;28;20528;-70
2023/07/31 05:47:01;;;;;;;5.90;3.60;;;18.30;97.20;;;;;;5065993;28;20918;-69
2023/07/31 05:49:28;;;;;;;4.97;3.17;;;18.30;97.30;;;;;;5062957;28;20434;-73
2023/07/31 05:51:55;;;;;;;3.90;3.10;;;18.30;97.20;;;;;;5065505;28;20435;-72
2023/07/31 05:54:21;;;;;;;3.80;2.90;;;18.20;97.40;;;;;;5062669;28;20407;-72
2023/07/31 05:56:48;;;;;;;4.10;3.10;;;18.20;97.40;;;;;;5066906;28;20419;-72
2023/07/31 05:59:15;;;;;;;3.83;3.10;;;18.20;97.20;;;;;;5066539;28;20431;-72
2023/07/31 06:01:43;;;;;;;4.47;3.00;;;18.20;97.40;;;;;;5064177;28;20780;-74
2023/07/31 06:04:09;;;;;;;5.82;4.38;;;18.20;97.70;;;;;;5072684;22;20782;-69
2023/07/31 06:06:36;;;;;;;5.50;3.65;;;18.10;98.50;;;;;;5059395;28;20424;-69
2023/07/31 06:09:03;;;;;;;3.58;3.15;;;18.10;99.10;;;;;;5067371;28;20403;-68
2023/07/31 06:11:30;;;;;;;5.20;3.55;;;18.00;99.90;;;;;;5063017;28;20427;-68
2023/07/31 06:13:57;;;;;;;5.63;3.70;;;17.90;99.90;;;;;;5059942;28;20470;-69
2023/07/31 06:16:23;;;;;;;5.00;3.88;;;17.80;99.90;;;;;;5035731;28;20429;-68
2023/07/31 06:18:52;;;;;;;5.70;3.70;;;17.70;99.90;;;;;;5047808;28;20760;-68
2023/07/31 06:21:18;;;;;;;5.07;3.30;;;17.60;99.90;;;;;;5046429;28;20851;-69
2023/07/31 06:23:45;;;;;;;5.28;4.07;;;17.50;99.90;;;;;;5046724;28;20476;-68
2023/07/31 06:26:12;;;;;;;6.93;4.07;;;17.50;99.90;;;;;;5046515;28;20482;-67
2023/07/31 06:28:38;;;;;;;5.55;3.92;;;17.40;99.90;;;;;;5045650;28;20500;-68
2023/07/31 06:31:05;;;;;;;5.32;3.67;;;17.40;99.90;;;;;;5053972;28;20435;-70
2023/07/31 06:33:32;;;;;;;6.20;3.70;;;17.40;99.90;;;;;;5050119;28;20675;-67
2023/07/31 06:36:00;;;;;;;5.85;3.78;;;17.40;99.90;;;;;;5045266;28;20423;-67
2023/07/31 06:38:27;;;;;;;7.60;3.95;;;17.40;99.90;;;;;;5048084;28;20441;-67
2023/07/31 06:40:54;;;;;;;5.30;3.50;;;17.40;99.90;;;;;;5046358;28;20429;-67
2023/07/31 06:43:21;;;;;;;5.13;4.10;;;17.40;99.90;;;;;;5055223;28;20862;-67
2023/07/31 06:45:50;;;;;;;6.65;3.70;;;17.40;99.90;;;;;;5046610;28;20433;-68
2023/07/31 06:48:17;;;;;;;6.53;3.83;;;17.40;99.90;;;;;;5048954;28;20464;-68
2023/07/31 06:50:43;;;;;;;5.40;3.70;;;17.40;99.90;;;;;;5050324;28;20532;-67
2023/07/31 06:53:12;;;;;;;5.50;3.90;;;17.50;99.90;;;;;;5044756;28;20420;-67
2023/07/31 06:55:38;;;;;;;6.00;3.80;;;17.60;99.90;;;;;;5045488;28;20791;-67
2023/07/31 06:58:05;;;;;;;5.20;3.87;;;17.60;99.90;;;;;;5045766;28;20454;-67
2023/07/31 07:00:32;;;;;;;5.57;3.70;;;17.60;99.90;;;;;;5041744;28;20452;-67
2023/07/31 07:02:59;;;;;;;5.20;3.80;;;17.70;99.90;;;;;;5053083;28;20417;-67
2023/07/31 07:05:26;;;;;;;4.32;3.92;;;17.80;99.90;;;;;;5062401;28;20418;-67
2023/07/31 07:07:52;;;;;;;5.00;3.90;;;17.90;99.90;;;;;;5051508;28;20428;-68
2023/07/31 07:10:21;;;;;;;5.70;3.75;;;17.90;99.90;;;;;;5046751;28;20436;-67
2023/07/31 07:12:47;;;;;;;5.07;3.42;;;18.00;99.90;;;;;;5039839;28;20508;-67
2023/07/31 07:15:14;;;;;;;3.93;3.30;;;18.00;99.90;;;;;;5045858;28;20451;-68
2023/07/31 07:17:41;;;;;;;4.60;3.70;;;18.10;99.90;;;;;;5056314;28;20819;-68
2023/07/31 07:20:09;;;;;;;5.18;3.30;;;18.10;99.90;;;;;;5039800;28;20543;-68
2023/07/31 07:22:36;;;;;;;5.97;3.50;;;18.10;99.90;;;;;;5048530;28;20437;-68
2023/07/31 07:25:02;;;;;;;4.97;3.70;;;18.10;99.90;;;;;;5051302;28;20459;-67
2023/07/31 07:27:31;;;;;;;4.70;3.30;;;18.20;99.90;;;;;;5046013;28;20486;-67
2023/07/31 07:29:57;;;;;;;5.68;3.67;;;18.20;99.90;;;;;;5042447;28;20529;-67
2023/07/31 07:32:24;;;;;;;4.97;3.50;;;18.10;99.90;;;;;;5052288;28;20558;-69
2023/07/31 07:34:51;;;;;;;4.03;3.40;;;18.10;99.90;;;;;;5052274;28;20432;-69
2023/07/31 07:37:18;;;;;;;4.80;3.75;;;18.10;99.90;;;;;;5044236;28;20485;-69
2023/07/31 07:39:45;;;;;;;5.05;3.65;;;18.10;99.90;;;;;;5030618;28;20467;-69
2023/07/31 07:42:11;;;;;;;4.60;3.85;;;18.00;99.90;;;;;;5040595;28;20787;-69
2023/07/31 07:44:39;;;;;;;4.80;3.60;;;18.00;99.90;;;;;;5044006;28;20493;-67
2023/07/31 07:47:06;;;;;;;5.57;4.25;;;17.90;99.90;;;;;;5045797;28;20495;-67
2023/07/31 07:49:34;;;;;;;5.13;3.70;;;17.90;99.90;;;;;;5054864;28;21125;-67
2023/07/31 07:52:01;;;;;;;6.20;4.00;;;17.90;99.90;;;;;;5048720;28;20469;-68
2023/07/31 07:54:27;;;;;;;5.13;4.00;;;17.80;99.90;;;;;;5049777;28;20432;-69
2023/07/31 07:56:54;;;;;;;5.20;4.00;;;17.70;99.90;;;;;;5049267;28;20437;-68
2023/07/31 07:59:21;;;;;;;6.55;4.25;;;17.70;99.90;;;;;;5042747;28;20433;-68
2023/07/31 08:01:49;;;;;;;5.85;4.15;;;17.60;99.90;;;;;;5032799;28;20438;-68
2023/07/31 08:04:16;;;;;;;6.20;4.30;;;17.60;99.90;;;;;;5047897;28;20430;-67
2023/07/31 08:06:43;;;;;;;6.78;3.60;;;17.50;99.90;;;;;;5051006;28;20405;-68
2023/07/31 08:09:09;;;;;;;4.25;3.20;;;17.50;99.90;;;;;;5054370;28;20913;-67
2023/07/31 08:11:36;;;;;;;5.70;3.50;;;17.40;99.90;;;;;;5051694;28;20433;-68
2023/07/31 08:14:03;;;;;;;3.97;3.28;;;17.30;99.90;;;;;;5054567;28;20939;-67
2023/07/31 08:16:30;;;;;;;4.30;2.90;;;17.20;99.90;;;;;;5044218;28;20489;-67
2023/07/31 08:18:58;;;;;;;4.10;2.90;;;17.10;99.90;;;;;;5044460;28;20542;-67
2023/07/31 08:21:25;;;;;;;10.02;3.80;;;17.00;99.90;;;;;;5056986;28;20851;-67
2023/07/31 08:23:51;;;;;;;5.45;2.95;;;16.90;99.90;;;;;;5057476;28;20422;-67
2023/07/31 08:26:19;;;;;;;6.53;3.40;;;16.90;99.90;;;;;;5055345;28;20444;-67
2023/07/31 08:28:45;;;;;;;5.18;3.35;;;16.90;99.90;;;;;;5043809;28;20828;-67
2023/07/31 08:31:12;;;;;;;4.30;2.90;;;17.00;99.90;;;;;;5047119;28;20427;-67
2023/07/31 08:33:39;;;;;;;4.20;3.10;;;17.00;99.90;;;;;;5051924;28;20438;-67
2023/07/31 08:36:08;;;;;;;4.20;3.15;;;17.10;99.90;;;;;;5049565;28;20844;-67
2023/07/31 08:38:34;;;;;;;4.20;3.20;;;17.10;99.90;;;;;;5054726;28;20427;-67
2023/07/31 08:41:03;;;;;;;3.58;3.17;;;17.20;99.90;;;;;;5055361;28;20410;-67
2023/07/31 08:43:31;;;;;;;5.78;3.70;;;17.20;99.90;;;;;;5047215;28;20439;-67
2023/07/31 08:45:58;;;;;;;5.10;3.47;;;17.20;99.90;;;;;;5059213;28;20496;-67
2023/07/31 08:48:25;;;;;;;3.95;3.30;;;17.20;99.90;;;;;;5046553;28;20436;-67
2023/07/31 08:50:52;;;;;;;4.60;3.22;;;17.20;99.90;;;;;;5041770;28;20437;-68
2023/07/31 08:53:20;;;;;;;4.57;3.30;;;17.20;99.90;;;;;;5048311;28;20427;-68
2023/07/31 08:55:49;;;;;;;4.47;2.95;;;17.20;99.90;;;;;;5059465;28;20479;-68
2023/07/31 08:58:16;;;;;;;5.00;3.58;;;17.20;99.90;;;;;;5042469;28;20433;-67
2023/07/31 09:00:44;;;;;;;5.07;3.60;;;17.20;99.90;;;;;;5043799;28;20437;-67
2023/07/31 09:03:15;;;;;;;4.25;2.90;;;17.30;99.90;;;;;;5053013;28;20541;-68
2023/07/31 09:05:44;;;;;;;5.78;3.63;;;17.30;99.90;;;;;;5058054;28;20465;-68
2023/07/31 09:08:11;;;;;;;4.65;3.20;;;17.30;99.90;;;;;;5054206;28;20408;-68
2023/07/31 09:10:42;;;;;;;4.22;3.22;;;17.30;99.90;;;;;;5053615;28;21203;-68
2023/07/31 09:13:10;;;;;;;4.13;3.00;;;17.40;99.90;;;;;;5045529;28;20427;-68
2023/07/31 09:15:37;;;;;;;5.43;3.30;;;17.50;99.90;;;;;;5044961;28;20429;-70
2023/07/31 09:18:05;;;;;;;4.95;3.40;;;17.60;99.90;;;;;;5046389;28;20483;-69
2023/07/31 09:20:32;;;;;;;4.50;3.05;;;17.60;99.90;;;;;;5053095;28;20432;-68
2023/07/31 09:23:07;;;;;;;4.63;3.30;;;17.70;99.90;;;;;;5052854;28;20440;-70
2023/07/31 09:25:33;;;;;;;4.63;3.05;;;17.60;99.90;;;;;;5056849;28;20409;-69
2023/07/31 09:28:03;;;;;;;5.10;3.53;;;17.60;99.90;;;;;;5048081;28;20760;-68
2023/07/31 09:30:30;;;;;;;5.75;3.63;;;17.40;99.90;;;;;;5045549;28;20424;-68
2023/07/31 09:33:07;;;;;;;4.40;4.00;;;17.40;99.90;;;;;;5042390;28;20497;-69
2023/07/31 09:35:37;;;;;;;4.38;3.45;;;17.50;99.90;;;;;;5042550;28;20423;-70
2023/07/31 09:38:06;;;;;;;3.90;3.20;;;17.50;99.90;;;;;;5050945;28;20908;-69
2023/07/31 09:40:34;;;;;;;3.90;3.00;;;17.50;99.90;;;;;;5049613;28;20444;-68
2023/07/31 09:43:04;;;;;;;4.32;2.70;;;17.60;99.90;;;;;;5048273;28;20459;-70
2023/07/31 09:45:38;;;;;;;3.40;2.92;;;17.80;99.90;;;;;;5057086;28;20513;-68
2023/07/31 09:48:08;;;;;;;5.20;3.00;;;17.90;99.90;;;;;;5052613;28;20400;-70
2023/07/31 09:50:39;;;;;;;3.60;3.00;;;18.00;99.90;;;;;;5046685;28;21015;-69
2023/07/31 09:53:06;;;;;;;4.60;3.15;;;18.10;99.90;;;;;;5056603;28;21012;-69
2023/07/31 09:55:33;;;;;;;5.30;3.20;;;18.20;99.90;;;;;;5047109;28;20500;-69
2023/07/31 09:58:03;;;;;;;3.95;2.85;;;18.30;99.90;;;;;;5044338;28;20436;-69
2023/07/31 10:00:31;;;;;;;4.50;2.60;;;18.40;99.90;;;;;;5041451;28;20491;-69
2023/07/31 10:03:00;;;;;;;2.95;2.58;;;18.60;99.90;;;;;;5049491;28;20882;-69
2023/07/31 10:05:32;;;;;;;3.83;2.50;;;18.70;99.90;;;;;;5050680;28;20407;-71
2023/07/31 10:07:59;;;;;;;3.08;2.55;;;18.70;99.90;;;;;;5049961;28;20425;-71
2023/07/31 10:10:27;;;;;;;4.32;2.50;;;18.90;99.90;;;;;;5056633;28;20420;-69
2023/07/31 10:12:56;;;;;;;4.10;2.60;;;19.00;99.90;;;;;;5046492;28;20508;-69
2023/07/31 10:15:26;;;;;;;3.22;2.40;;;19.10;99.90;;;;;;5044056;28;20424;-71
2023/07/31 10:17:53;;;;;;;4.55;2.55;;;19.20;99.90;;;;;;5047533;28;20425;-71
2023/07/31 10:20:21;;;;;;;4.30;2.30;;;19.20;99.90;;;;;;5055702;28;20411;-69
2023/07/31 10:22:49;;;;;;;3.55;2.50;;;19.30;99.90;;;;;;5051350;28;20431;-69
2023/07/31 10:25:17;;;;;;;4.25;2.53;;;19.30;99.40;;;;;;5051399;28;20433;-70
2023/07/31 10:27:43;;;;;;;4.40;2.70;;;19.30;98.70;;;;;;5047803;28;20436;-69
2023/07/31 10:30:15;;;;;;;4.37;2.60;;;19.30;98.70;;;;;;5049919;28;20478;-69
2023/07/31 10:32:44;;;;;;;3.70;2.42;;;19.30;97.80;;;;;;5043969;28;20855;-67
2023/07/31 10:35:12;;;;;;;8.40;2.88;;;19.40;96.90;;;;;;5045025;28;20744;-69
2023/07/31 10:37:41;;;;;;;11.35;3.75;;;19.40;96.30;;;;;;5057921;28;20723;-70
2023/07/31 10:40:11;;;;;;;3.55;2.40;;;19.50;96.40;;;;;;5042658;28;20933;-70
2023/07/31 10:42:45;;;;;;;3.60;2.30;;;19.50;95.70;;;;;;5038982;28;20449;-70
2023/07/31 10:45:12;;;;;;;3.33;2.40;;;19.60;95.70;;;;;;5052399;28;20436;-71
2023/07/31 10:47:39;;;;;;;3.17;2.40;;;19.50;94.70;;;;;;5045228;28;20414;-72
2023/07/31 10:50:16;;;;;;;5.38;2.35;;;19.50;95.40;;;;;;5046051;28;20964;-71
2023/07/31 10:52:47;;;;;;;4.00;2.35;;;19.50;95.70;;;;;;5047684;28;20897;-72
2023/07/31 10:55:16;;;;;;;2.97;2.00;;;19.50;95.80;;;;;;5045025;28;20504;-70
2023/07/31 10:57:46;;;;;;;3.33;2.30;;;19.50;95.50;;;;;;5055281;28;20969;-69
2023/07/31 11:00:20;;;;;;;3.33;2.03;;;19.60;95.10;;;;;;5046020;28;20556;-70
2023/07/31 11:02:58;;;;;;;4.78;2.10;;;19.60;94.60;;;;;;5052055;28;20560;-69
2023/07/31 11:05:46;;;;;;;2.60;1.98;;;19.70;96.20;;;;;;5042897;28;20429;-69
2023/07/31 11:08:14;;;;;;;1.90;1.35;;;19.80;97.10;;;;;;5045552;28;20518;-69
2023/07/31 11:10:41;;;;;;;2.70;1.90;;;19.60;98.50;;;;;;5046207;28;20433;-68
2023/07/31 11:13:08;;;;;;;1.80;1.60;;;19.30;99.90;;;;;;5050377;28;20456;-69
2023/07/31 11:15:34;;;;;;;3.47;2.05;;;18.90;99.90;;;;;;5042464;28;20771;-68
2023/07/31 11:18:03;;;;;;;3.63;1.47;;;18.60;99.90;;;;;;5051816;28;20444;-69
2023/07/31 11:20:32;;;;;;;2.63;2.30;;;18.50;99.90;;;;;;5049132;28;20433;-68
2023/07/31 11:23:01;;;;;;;2.57;1.80;;;18.40;99.90;;;;;;5047996;28;20464;-68
2023/07/31 11:25:29;;;;;;;2.30;1.42;;;18.30;99.90;;;;;;5047163;28;20444;-69
2023/07/31 11:27:56;;;;;;;2.10;1.40;;;18.30;99.90;;;;;;5044555;28;20485;-68
2023/07/31 11:30:23;;;;;;;1.80;1.20;;;18.40;99.90;;;;;;5047198;28;20485;-68
2023/07/31 11:32:50;;;;;;;1.70;1.20;;;18.50;99.90;;;;;;5041703;28;20444;-69
2023/07/31 11:35:17;;;;;;;1.67;1.08;;;18.70;99.90;;;;;;5046278;28;20522;-69
2023/07/31 11:37:46;;;;;;;1.90;0.80;;;18.90;99.90;;;;;;5035918;28;20452;-69
2023/07/31 11:40:13;;;;;;;1.85;1.10;;;19.10;99.90;;;;;;5040252;28;20433;-69
2023/07/31 11:42:39;;;;;;;3.42;1.33;;;19.40;99.40;;;;;;5034783;28;20439;-68
2023/07/31 11:45:07;;;;;;;1.70;1.30;;;19.60;97.80;;;;;;5038992;28;20433;-69
2023/07/31 11:47:35;;;;;;;2.53;1.10;;;19.90;96.90;;;;;;5044292;28;20437;-68
2023/07/31 11:50:03;;;;;;;1.95;1.00;;;20.10;95.00;;;;;;5053796;28;20419;-69
2023/07/31 11:52:32;;;;;;;2.45;1.10;;;20.40;94.80;;;;;;5043676;28;20429;-68
2023/07/31 11:55:01;;;;;;;1.00;0.70;;;20.60;92.80;;;;;;5045506;28;20433;-72
2023/07/31 11:57:29;;;;;;;4.22;0.88;;;20.70;92.30;;;;;;5049736;28;20440;-69
2023/07/31 11:59:56;;;;;;;1.25;0.70;;;20.80;92.70;;;;;;5049890;28;20488;-66
2023/07/31 12:02:23;;;;;;;1.55;0.80;;;20.70;91.80;;;;;;5049133;28;20427;-68
2023/07/31 12:04:51;;;;;;;1.70;0.80;;;20.60;91.80;;;;;;5083607;22;20454;-68
2023/07/31 12:07:17;;;;;;;1.25;0.70;;;20.50;92.00;;;;;;5080209;28;20435;-75
2023/07/31 12:09:53;;;;;;;1.60;0.80;;;20.40;92.60;;;;;;5085261;28;20409;-73
2023/07/31 12:12:22;;;;;;;1.20;0.90;;;20.30;92.80;;;;;;5083395;28;20479;-71
2023/07/31 12:14:50;;;;;;;1.45;0.90;;;20.30;93.40;;;;;;5089616;28;20410;-73
2023/07/31 12:17:19;;;;;;;1.25;0.90;;;20.30;92.90;;;;;;5069502;28;20421;-73
2023/07/31 12:19:46;;;;;;;1.30;0.70;;;20.20;93.20;;;;;;5075158;28;20508;-71
2023/07/31 12:22:13;;;;;;;1.70;0.70;;;20.20;92.90;;;;;;5081958;28;20429;-72
2023/07/31 12:24:40;;;;;;;3.33;1.10;;;20.20;93.50;;;;;;5069356;28;20434;-75
2023/07/31 12:27:11;;;;;;;6.50;1.77;;;20.20;93.50;;;;;;5054813;28;20443;-73
2023/07/31 12:29:40;;;;;;;3.05;1.02;;;20.20;93.90;;;;;;5060777;28;20425;-73
2023/07/31 12:32:23;;;;;;;3.88;1.20;;;20.20;93.70;;;;;;5062328;28;20439;-72
2023/07/31 12:34:50;;;;;;;1.40;0.90;;;20.30;93.40;;;;;;5064229;28;21154;-74
2023/07/31 12:37:17;;;;;;;1.27;1.00;;;20.40;93.40;;;;;;5057551;28;20418;-74
2023/07/31 12:39:44;;;;;;;1.77;1.20;;;20.40;93.00;;;;;;5057086;28;20532;-74
2023/07/31 12:42:11;;;;;;;2.00;1.13;;;20.40;93.20;;;;;;5053918;28;20441;-72
2023/07/31 12:44:39;;;;;;;3.38;1.50;;;20.30;93.10;;;;;;5059841;28;20435;-73
2023/07/31 12:47:06;;;;;;;2.83;1.05;;;20.40;93.40;;;;;;5052380;28;20829;-74
2023/07/31 12:49:33;;;;;;;6.20;2.15;;;20.40;93.20;;;;;;5070536;28;20421;-74
2023/07/31 12:52:00;;;;;;;1.60;1.35;;;20.50;92.90;;;;;;5086858;28;20439;-72